Time;durP1;ratioP1;P1;durP2;ratioP2;P2;SDS_P1;SDS_P2;PMS_P1;PMS_P2;Temp;Humidity;BMP_temperature;BMP_pressure;BME280_temperature;BME280_humidity;BME280_pressure;Samples;Min_cycle;Max_cycle;Signal;HPM_P1;HPM_P2
2021/07/01 00:03:41;;;;;;;5.20;3.83;;;22.20;66.10;;;;;;20673045;28;20125;-20
2021/07/01 00:13:42;;;;;;;4.93;3.45;;;22.20;65.50;;;;;;20684437;28;20113;-20
2021/07/01 00:23:43;;;;;;;5.43;2.90;;;22.20;65.60;;;;;;20691574;28;20030;-20
2021/07/01 00:33:44;;;;;;;2.97;2.58;;;22.20;64.60;;;;;;20692885;28;20026;-20
2021/07/01 00:43:44;;;;;;;4.27;2.57;;;22.10;64.40;;;;;;20679066;28;20093;-20
2021/07/01 00:53:45;;;;;;;4.45;3.25;;;22.10;64.70;;;;;;20668715;28;20023;-20
2021/07/01 01:03:45;;;;;;;6.43;2.47;;;22.10;64.10;;;;;;20675160;28;20068;-20
2021/07/01 01:13:46;;;;;;;3.00;2.38;;;22.10;63.80;;;;;;20668483;28;20122;-20
2021/07/01 01:23:47;;;;;;;3.80;2.33;;;22.10;63.70;;;;;;20666676;28;20058;-19
2021/07/01 01:33:50;;;;;;;5.07;2.73;;;22.00;64.10;;;;;;20666296;28;20054;-19
2021/07/01 01:43:51;;;;;;;4.90;2.38;;;22.00;64.30;;;;;;20665850;28;20026;-20
2021/07/01 01:53:51;;;;;;;3.83;2.83;;;22.00;62.80;;;;;;20668203;28;20031;-20
2021/07/01 02:03:52;;;;;;;5.45;3.30;;;22.00;63.20;;;;;;20662207;28;20037;-20
2021/07/01 02:13:53;;;;;;;5.13;2.42;;;21.90;63.00;;;;;;20664306;28;20034;-20
2021/07/01 02:23:53;;;;;;;5.25;2.95;;;21.90;63.00;;;;;;20664144;28;20124;-20
2021/07/01 02:33:54;;;;;;;5.60;2.65;;;21.90;63.20;;;;;;20660044;28;20462;-20
2021/07/01 02:43:54;;;;;;;7.13;3.90;;;21.90;63.40;;;;;;20661400;28;20480;-20
2021/07/01 02:53:55;;;;;;;6.18;2.95;;;21.90;63.50;;;;;;20681149;28;20042;-20
2021/07/01 03:03:55;;;;;;;4.80;2.23;;;21.90;63.10;;;;;;20676993;28;20058;-19
2021/07/01 03:13:56;;;;;;;6.35;4.10;;;21.90;62.60;;;;;;20671118;28;20493;-20
2021/07/01 03:23:57;;;;;;;5.10;3.10;;;21.90;63.20;;;;;;20672728;28;20030;-21
2021/07/01 03:33:57;;;;;;;8.23;3.50;;;21.90;62.30;;;;;;20667892;28;20034;-20
2021/07/01 03:43:58;;;;;;;6.13;4.38;;;21.90;62.30;;;;;;20677950;28;20050;-21
2021/07/01 03:53:59;;;;;;;6.63;4.25;;;21.80;62.20;;;;;;20673250;28;20039;-20
2021/07/01 04:03:59;;;;;;;7.27;4.03;;;21.80;62.30;;;;;;20675658;28;20049;-20
2021/07/01 04:14:00;;;;;;;7.05;4.35;;;21.80;62.30;;;;;;20668400;28;20469;-20
2021/07/01 04:24:00;;;;;;;5.88;3.67;;;21.80;62.40;;;;;;20670611;28;20039;-19
2021/07/01 04:34:02;;;;;;;5.60;3.50;;;21.80;62.10;;;;;;20666503;28;20034;-19
2021/07/01 04:44:04;;;;;;;4.18;3.17;;;21.70;62.20;;;;;;20673666;28;20066;-20
2021/07/01 04:54:05;;;;;;;4.15;3.13;;;21.70;62.20;;;;;;20670225;28;20484;-19
2021/07/01 05:04:10;;;;;;;4.43;3.10;;;21.70;61.90;;;;;;20687343;28;20404;-19
2021/07/01 05:14:11;;;;;;;6.32;4.32;;;21.70;62.10;;;;;;20679171;28;21130;-19
2021/07/01 05:24:12;;;;;;;7.53;3.40;;;21.70;62.20;;;;;;20685347;28;20072;-19
2021/07/01 05:34:12;;;;;;;5.50;3.95;;;21.70;62.00;;;;;;20680797;28;22447;-19
2021/07/01 05:44:13;;;;;;;4.85;3.03;;;21.70;62.10;;;;;;20666119;28;20434;-21
2021/07/01 05:54:26;;;;;;;7.22;4.28;;;21.60;63.00;;;;;;20664642;28;20656;-18
2021/07/01 06:04:26;;;;;;;13.23;4.75;;;21.60;64.40;;;;;;20662868;28;20048;-20
2021/07/01 06:14:28;;;;;;;21.33;7.40;;;21.70;64.50;;;;;;20660555;28;20053;-20
2021/07/01 06:24:29;;;;;;;30.63;11.07;;;21.70;64.90;;;;;;20662836;28;20042;-20
2021/07/01 06:34:30;;;;;;;25.77;8.27;;;21.80;65.70;;;;;;20662030;28;20109;-20
2021/07/01 06:44:30;;;;;;;23.95;9.40;;;21.70;66.40;;;;;;20662656;28;20445;-20
2021/07/01 06:54:31;;;;;;;16.27;7.85;;;21.70;66.60;;;;;;20660488;28;20081;-20
2021/07/01 07:04:33;;;;;;;25.25;8.95;;;21.70;66.90;;;;;;20656848;28;20034;-20
2021/07/01 07:14:33;;;;;;;18.33;7.88;;;21.80;66.00;;;;;;20655437;28;20397;-21
2021/07/01 07:24:37;;;;;;;18.95;7.47;;;21.80;66.20;;;;;;20670418;28;20034;-19
2021/07/01 07:34:38;;;;;;;15.63;6.63;;;21.90;66.30;;;;;;20673068;28;20038;-21
2021/07/01 07:44:39;;;;;;;16.10;6.63;;;21.90;66.50;;;;;;20672666;28;20122;-20
2021/07/01 07:54:50;;;;;;;11.02;6.57;;;21.90;66.80;;;;;;20686692;28;20580;-20
2021/07/01 08:04:51;;;;;;;17.23;5.68;;;21.90;66.80;;;;;;20687658;28;20031;-20
2021/07/01 08:14:51;;;;;;;12.73;6.73;;;21.90;67.00;;;;;;20671171;28;20094;-20
2021/07/01 08:24:52;;;;;;;11.67;6.03;;;21.90;67.20;;;;;;20684090;28;20089;-20
2021/07/01 08:34:53;;;;;;;8.33;5.67;;;21.90;67.20;;;;;;20685181;28;20936;-20
2021/07/01 08:44:59;;;;;;;15.10;5.45;;;21.90;67.30;;;;;;20689485;28;20457;-20
2021/07/01 08:55:05;;;;;;;8.73;5.45;;;21.90;67.40;;;;;;20692838;28;20042;-19
2021/07/01 09:05:13;;;;;;;9.68;4.63;;;22.00;67.30;;;;;;20687670;28;20065;-20
2021/07/01 09:15:14;;;;;;;11.00;5.03;;;21.90;67.50;;;;;;20682296;28;20117;-20
2021/07/01 09:25:17;;;;;;;8.13;4.70;;;22.00;67.30;;;;;;20685314;28;20046;-20
2021/07/01 09:35:18;;;;;;;8.18;4.57;;;22.00;67.20;;;;;;20678068;28;20038;-20
2021/07/01 09:45:22;;;;;;;8.27;4.25;;;21.90;67.50;;;;;;20681646;28;20030;-19
2021/07/01 09:55:27;;;;;;;9.45;4.65;;;22.00;67.50;;;;;;20681796;28;20030;-20
2021/07/01 10:05:28;;;;;;;12.63;4.18;;;22.00;67.10;;;;;;20673760;28;20543;-20
2021/07/01 10:15:31;;;;;;;6.35;4.47;;;22.00;67.40;;;;;;20676262;28;20085;-20
2021/07/01 10:25:33;;;;;;;6.47;3.67;;;22.00;67.40;;;;;;20663127;28;20088;-20
2021/07/01 10:35:38;;;;;;;4.70;3.53;;;22.00;67.10;;;;;;20666979;28;20022;-20
2021/07/01 10:45:54;;;;;;;6.35;3.40;;;22.00;67.10;;;;;;20681413;28;20034;-20
2021/07/01 10:56:00;;;;;;;6.72;3.83;;;22.00;67.00;;;;;;20674247;28;20109;-19
2021/07/01 11:06:14;;;;;;;11.88;3.75;;;22.00;67.10;;;;;;20678009;28;20053;-19
2021/07/01 11:16:14;;;;;;;6.22;3.20;;;22.00;67.60;;;;;;20662610;28;20030;-19
2021/07/01 11:26:32;;;;;;;6.40;2.83;;;22.00;67.50;;;;;;20655720;28;20045;-20
2021/07/01 11:36:35;;;;;;;7.43;4.10;;;22.00;67.30;;;;;;20660957;28;20026;-20
2021/07/01 11:46:36;;;;;;;6.60;2.58;;;22.00;67.40;;;;;;20664510;28;20045;-20
2021/07/01 12:07:25;;;;;;;4.90;2.53;;;22.10;67.60;;;;;;20667329;28;20090;-20
2021/07/01 12:17:58;;;;;;;5.55;3.42;;;22.10;67.90;;;;;;20684890;28;20054;-20
2021/07/01 12:28:05;;;;;;;6.18;2.60;;;22.00;67.70;;;;;;20683053;28;20038;-20
2021/07/01 12:38:12;;;;;;;4.32;2.50;;;22.10;68.10;;;;;;20682619;28;20038;-20
2021/07/01 12:48:48;;;;;;;3.72;2.47;;;22.10;68.00;;;;;;20670065;28;20039;-19
2021/07/01 12:58:49;;;;;;;3.72;2.40;;;22.10;67.40;;;;;;20788926;22;20046;-20
2021/07/01 13:08:49;;;;;;;3.90;2.13;;;22.00;67.50;;;;;;20829640;28;20033;-20
2021/07/01 13:18:50;;;;;;;5.03;2.97;;;22.00;67.80;;;;;;20827908;28;20056;-20
2021/07/01 13:28:50;;;;;;;3.40;2.33;;;22.00;67.70;;;;;;20823958;28;20539;-20
2021/07/01 13:38:51;;;;;;;5.93;2.50;;;21.90;67.50;;;;;;20827040;28;20108;-20
2021/07/01 13:48:59;;;;;;;7.88;2.60;;;22.00;67.60;;;;;;20828076;28;20044;-20
2021/07/01 13:59:08;;;;;;;10.02;2.80;;;22.00;67.80;;;;;;20827451;28;20053;-21
2021/07/01 14:09:09;;;;;;;8.68;2.92;;;22.00;68.30;;;;;;20803515;28;20071;-20
2021/07/01 14:19:12;;;;;;;16.23;4.18;;;22.10;68.40;;;;;;20791023;28;20037;-20
2021/07/01 14:29:13;;;;;;;6.85;2.25;;;22.10;68.50;;;;;;20796515;28;20117;-20
2021/07/01 14:39:14;;;;;;;7.85;3.05;;;22.00;68.30;;;;;;20826808;28;20087;-20
2021/07/01 14:49:36;;;;;;;15.23;3.55;;;22.10;68.30;;;;;;20821537;28;20085;-21
2021/07/01 14:59:58;;;;;;;11.90;2.58;;;22.00;68.40;;;;;;20823819;28;20025;-21
2021/07/01 15:10:10;;;;;;;14.40;2.17;;;22.10;67.90;;;;;;20822932;28;20033;-20
2021/07/01 15:20:13;;;;;;;21.27;2.88;;;22.10;68.10;;;;;;20813758;28;20041;-20
2021/07/01 15:30:15;;;;;;;22.67;4.28;;;22.10;68.10;;;;;;20818996;28;20636;-20
2021/07/01 15:40:19;;;;;;;10.23;2.05;;;22.10;68.30;;;;;;20797439;28;20025;-19
2021/07/01 15:50:19;;;;;;;27.77;3.50;;;22.00;68.00;;;;;;20813440;28;20071;-20
2021/07/01 16:00:20;;;;;;;14.95;3.42;;;22.00;67.90;;;;;;20785934;28;20531;-21
2021/07/01 16:10:20;;;;;;;17.50;3.57;;;22.10;67.90;;;;;;20814845;28;20561;-21
2021/07/01 16:20:23;;;;;;;20.17;2.37;;;22.00;68.40;;;;;;20780661;28;20460;-20
2021/07/01 16:30:24;;;;;;;21.27;3.13;;;22.10;68.20;;;;;;20778840;28;20420;-21
2021/07/01 16:40:26;;;;;;;20.88;5.38;;;22.10;68.20;;;;;;20814718;28;20095;-20
2021/07/01 16:50:29;;;;;;;11.93;3.03;;;22.10;67.90;;;;;;20809532;28;20100;-21
2021/07/01 17:00:34;;;;;;;16.52;2.75;;;22.00;68.40;;;;;;20811021;28;20025;-20
2021/07/01 17:10:36;;;;;;;11.68;3.58;;;22.20;68.30;;;;;;20800846;28;20137;-19
2021/07/01 17:20:38;;;;;;;23.48;4.55;;;22.30;68.50;;;;;;20814925;28;20025;-20
2021/07/01 17:30:42;;;;;;;34.75;5.93;;;22.20;68.60;;;;;;20817345;28;20440;-21
2021/07/01 17:40:42;;;;;;;34.67;7.50;;;22.20;69.20;;;;;;20829206;28;20079;-19
2021/07/01 17:50:44;;;;;;;29.90;7.60;;;22.20;69.80;;;;;;20827850;28;20037;-19
2021/07/01 18:00:45;;;;;;;22.80;6.88;;;22.20;69.70;;;;;;20826337;28;20103;-19
2021/07/01 18:10:45;;;;;;;27.98;7.15;;;22.20;69.90;;;;;;20826072;28;20065;-19
2021/07/01 18:20:46;;;;;;;21.38;6.53;;;22.10;69.70;;;;;;20826408;28;20029;-21
2021/07/01 18:30:46;;;;;;;24.98;6.10;;;22.10;69.60;;;;;;20823605;28;20064;-21
2021/07/01 18:40:47;;;;;;;16.58;5.55;;;22.10;69.50;;;;;;20782224;28;20052;-20
2021/07/01 18:50:48;;;;;;;19.15;6.43;;;22.10;69.80;;;;;;20810493;28;20037;-19
2021/07/01 19:00:49;;;;;;;23.13;6.70;;;22.10;69.80;;;;;;20808150;28;20132;-20
2021/07/01 19:10:49;;;;;;;24.38;6.28;;;22.10;69.70;;;;;;20821056;28;20068;-19
2021/07/01 19:20:50;;;;;;;19.02;5.07;;;22.00;69.60;;;;;;20822046;28;20057;-20
2021/07/01 19:30:51;;;;;;;15.20;4.93;;;22.10;69.20;;;;;;20817941;28;20091;-20
2021/07/01 19:40:52;;;;;;;28.38;6.85;;;22.10;69.30;;;;;;20800238;28;20033;-20
2021/07/01 19:50:58;;;;;;;19.70;5.75;;;22.00;69.50;;;;;;20764437;28;20049;-20
2021/07/01 20:01:03;;;;;;;20.52;6.60;;;22.00;69.40;;;;;;20802476;28;20060;-20
2021/07/01 20:11:04;;;;;;;17.45;4.57;;;22.00;69.60;;;;;;20775041;28;20062;-20
2021/07/01 20:21:05;;;;;;;12.27;5.50;;;22.10;69.50;;;;;;20791376;28;20026;-20
2021/07/01 20:31:06;;;;;;;13.83;4.50;;;22.00;69.60;;;;;;20776216;28;20030;-20
2021/07/01 20:41:07;;;;;;;12.88;4.93;;;22.10;69.60;;;;;;20779662;28;20554;-20
2021/07/01 20:51:07;;;;;;;10.95;5.22;;;22.10;70.20;;;;;;20823935;28;20029;-20
2021/07/01 21:01:08;;;;;;;11.00;4.50;;;22.10;69.60;;;;;;20792246;28;20519;-20
2021/07/01 21:11:10;;;;;;;19.33;5.82;;;22.10;69.60;;;;;;20778007;28;20022;-20
2021/07/01 21:21:10;;;;;;;14.75;4.55;;;22.00;69.50;;;;;;20776412;28;20036;-20
2021/07/01 21:31:11;;;;;;;7.70;4.32;;;22.10;69.50;;;;;;20797867;28;20030;-20
2021/07/01 21:41:17;;;;;;;16.02;4.88;;;22.10;69.60;;;;;;20776154;28;20086;-20
2021/07/01 21:51:20;;;;;;;10.00;4.40;;;22.00;69.50;;;;;;20785434;28;20033;-20
2021/07/01 22:01:22;;;;;;;10.98;5.72;;;22.00;69.50;;;;;;20817821;28;20067;-21
2021/07/01 22:11:24;;;;;;;11.98;4.40;;;22.00;68.90;;;;;;20840117;28;20458;-20
2021/07/01 22:21:25;;;;;;;10.18;4.10;;;22.00;68.80;;;;;;20802495;28;20116;-21
2021/07/01 22:31:27;;;;;;;17.98;5.30;;;22.00;68.80;;;;;;20785146;28;20026;-21
2021/07/01 22:41:27;;;;;;;23.75;5.82;;;22.00;68.70;;;;;;20803507;28;20083;-21
2021/07/01 22:51:33;;;;;;;17.50;6.07;;;22.00;68.70;;;;;;20822272;28;20369;-21
2021/07/01 23:01:34;;;;;;;19.13;6.30;;;21.90;68.40;;;;;;20822274;28;20175;-20
2021/07/01 23:11:34;;;;;;;14.27;6.32;;;22.00;68.40;;;;;;20821292;28;20495;-20
2021/07/01 23:21:35;;;;;;;16.87;6.07;;;21.90;68.30;;;;;;20821167;28;20037;-20
2021/07/01 23:31:36;;;;;;;14.07;5.70;;;21.90;68.40;;;;;;20820876;28;20479;-20
2021/07/01 23:41:37;;;;;;;12.38;5.65;;;21.90;68.40;;;;;;20820580;28;21124;-19
2021/07/01 23:51:38;;;;;;;13.00;5.72;;;21.90;68.90;;;;;;20825279;28;20033;-19
